sensor_id;sensor_type;location;lat;lon;timestamp;pressure;altitude;pressure_sealevel;temperature;humidity
5126;BME280;63008;53.112;8.896;2023-02-04T00:00:57;102826.66;;;5.59;79.99
5126;BME280;63008;53.112;8.896;2023-02-04T00:02:58;102835.84;;;5.53;79.81
5126;BME280;63008;53.112;8.896;2023-02-04T00:05:01;102838.56;;;5.53;80.15
5126;BME280;63008;53.112;8.896;2023-02-04T00:07:02;102837.66;;;5.48;80.03
5126;BME280;63008;53.112;8.896;2023-02-04T00:09:03;102832.72;;;5.45;80.41
5126;BME280;63008;53.112;8.896;2023-02-04T00:11:04;102842.97;;;5.38;80.67
5126;BME280;63008;53.112;8.896;2023-02-04T00:13:05;102843.34;;;5.30;81.22
5126;BME280;63008;53.112;8.896;2023-02-04T00:15:07;102842.56;;;5.30;81.35
5126;BME280;63008;53.112;8.896;2023-02-04T00:17:08;102846.56;;;5.27;81.24
5126;BME280;63008;53.112;8.896;2023-02-04T00:19:11;102847.31;;;5.23;81.48
5126;BME280;63008;53.112;8.896;2023-02-04T00:21:12;102855.25;;;5.24;81.58
5126;BME280;63008;53.112;8.896;2023-02-04T00:23:13;102870.66;;;5.19;81.89
5126;BME280;63008;53.112;8.896;2023-02-04T00:25:14;102871.88;;;5.11;81.96
5126;BME280;63008;53.112;8.896;2023-02-04T00:27:15;102866.09;;;5.08;82.10
5126;BME280;63008;53.112;8.896;2023-02-04T00:29:16;102867.91;;;5.02;82.43
5126;BME280;63008;53.112;8.896;2023-02-04T00:31:17;102880.75;;;5.07;82.29
5126;BME280;63008;53.112;8.896;2023-02-04T00:33:18;102880.75;;;5.07;82.10
5126;BME280;63008;53.112;8.896;2023-02-04T00:35:20;102895.22;;;5.07;82.12
5126;BME280;63008;53.112;8.896;2023-02-04T00:37:26;102895.13;;;5.02;82.38
5126;BME280;63008;53.112;8.896;2023-02-04T00:39:26;102911.44;;;5.02;82.26
5126;BME280;63008;53.112;8.896;2023-02-04T00:41:27;102920.22;;;4.93;82.64
5126;BME280;63008;53.112;8.896;2023-02-04T00:43:28;102918.47;;;4.87;83.04
5126;BME280;63008;53.112;8.896;2023-02-04T00:45:29;102920.03;;;4.83;83.09
5126;BME280;63008;53.112;8.896;2023-02-04T00:47:30;102928.09;;;4.78;83.43
5126;BME280;63008;53.112;8.896;2023-02-04T00:49:33;102925.38;;;4.78;83.42
5126;BME280;63008;53.112;8.896;2023-02-04T00:51:34;102931.91;;;4.77;83.64
5126;BME280;63008;53.112;8.896;2023-02-04T00:53:35;102933.19;;;4.74;83.50
5126;BME280;63008;53.112;8.896;2023-02-04T00:55:36;102935.06;;;4.74;83.70
5126;BME280;63008;53.112;8.896;2023-02-04T00:57:37;102939.84;;;4.67;83.81
5126;BME280;63008;53.112;8.896;2023-02-04T00:59:38;102941.38;;;4.63;84.20
5126;BME280;63008;53.112;8.896;2023-02-04T01:01:39;102944.22;;;4.68;84.10
5126;BME280;63008;53.112;8.896;2023-02-04T01:03:40;102946.97;;;4.56;84.41
5126;BME280;63008;53.112;8.896;2023-02-04T01:05:41;102950.25;;;4.58;84.39
5126;BME280;63008;53.112;8.896;2023-02-04T01:07:42;102955.47;;;4.60;84.07
5126;BME280;63008;53.112;8.896;2023-02-04T01:09:43;102954.38;;;4.72;83.91
5126;BME280;63008;53.112;8.896;2023-02-04T01:11:44;102965.59;;;4.64;83.81
5126;BME280;63008;53.112;8.896;2023-02-04T01:13:45;102968.25;;;4.48;84.36
5126;BME280;63008;53.112;8.896;2023-02-04T01:15:46;102973.22;;;4.39;84.66
5126;BME280;63008;53.112;8.896;2023-02-04T01:17:48;102977.00;;;4.38;84.51
5126;BME280;63008;53.112;8.896;2023-02-04T01:19:49;102977.50;;;4.35;84.65
5126;BME280;63008;53.112;8.896;2023-02-04T01:21:49;102987.16;;;4.31;84.69
5126;BME280;63008;53.112;8.896;2023-02-04T01:23:51;102985.19;;;4.27;84.99
5126;BME280;63008;53.112;8.896;2023-02-04T01:25:52;102992.38;;;4.33;84.75
5126;BME280;63008;53.112;8.896;2023-02-04T01:27:53;102993.31;;;4.27;85.04
5126;BME280;63008;53.112;8.896;2023-02-04T01:29:54;103006.44;;;4.30;85.02
5126;BME280;63008;53.112;8.896;2023-02-04T01:31:54;103011.50;;;4.26;85.02
5126;BME280;63008;53.112;8.896;2023-02-04T01:33:55;103007.84;;;4.21;84.98
5126;BME280;63008;53.112;8.896;2023-02-04T01:35:56;103004.53;;;4.19;85.36
5126;BME280;63008;53.112;8.896;2023-02-04T01:37:57;103016.72;;;4.16;85.35
5126;BME280;63008;53.112;8.896;2023-02-04T01:39:58;103030.53;;;4.15;85.40
5126;BME280;63008;53.112;8.896;2023-02-04T01:41:59;103032.44;;;4.14;85.31
5126;BME280;63008;53.112;8.896;2023-02-04T01:44:00;103032.66;;;4.13;85.11
5126;BME280;63008;53.112;8.896;2023-02-04T01:46:02;103036.31;;;4.07;85.47
5126;BME280;63008;53.112;8.896;2023-02-04T01:48:04;103036.44;;;4.00;85.98
5126;BME280;63008;53.112;8.896;2023-02-04T01:50:08;103038.88;;;4.02;85.88
5126;BME280;63008;53.112;8.896;2023-02-04T01:52:10;103039.38;;;3.99;85.62
5126;BME280;63008;53.112;8.896;2023-02-04T01:54:13;103047.28;;;4.00;85.30
5126;BME280;63008;53.112;8.896;2023-02-04T01:56:19;103052.94;;;3.99;85.36
5126;BME280;63008;53.112;8.896;2023-02-04T01:58:20;103062.16;;;3.98;85.41
5126;BME280;63008;53.112;8.896;2023-02-04T02:00:25;103057.78;;;3.97;85.26
5126;BME280;63008;53.112;8.896;2023-02-04T02:02:47;103060.16;;;4.05;85.08
5126;BME280;63008;53.112;8.896;2023-02-04T02:04:48;103057.00;;;4.08;85.37
5126;BME280;63008;53.112;8.896;2023-02-04T02:06:53;103063.72;;;4.17;85.21
5126;BME280;63008;53.112;8.896;2023-02-04T02:08:55;103072.72;;;4.17;84.77
5126;BME280;63008;53.112;8.896;2023-02-04T02:10:57;103078.16;;;4.17;85.10
5126;BME280;63008;53.112;8.896;2023-02-04T02:12:58;103085.47;;;4.17;84.86
5126;BME280;63008;53.112;8.896;2023-02-04T02:15:00;103092.53;;;4.18;84.64
5126;BME280;63008;53.112;8.896;2023-02-04T02:17:01;103097.38;;;4.04;84.90
5126;BME280;63008;53.112;8.896;2023-02-04T02:19:03;103110.09;;;3.92;84.99
5126;BME280;63008;53.112;8.896;2023-02-04T02:21:09;103126.84;;;3.89;85.28
5126;BME280;63008;53.112;8.896;2023-02-04T02:23:23;103134.41;;;3.87;85.46
5126;BME280;63008;53.112;8.896;2023-02-04T02:25:26;103141.09;;;3.85;85.31
5126;BME280;63008;53.112;8.896;2023-02-04T02:27:27;103138.91;;;3.93;85.51
5126;BME280;63008;53.112;8.896;2023-02-04T02:29:28;103138.00;;;3.99;85.13
5126;BME280;63008;53.112;8.896;2023-02-04T02:31:29;103145.28;;;3.99;84.98
5126;BME280;63008;53.112;8.896;2023-02-04T02:33:30;103148.47;;;3.96;84.91
5126;BME280;63008;53.112;8.896;2023-02-04T02:35:32;103151.53;;;3.88;85.20
5126;BME280;63008;53.112;8.896;2023-02-04T02:37:33;103158.19;;;3.74;85.39
5126;BME280;63008;53.112;8.896;2023-02-04T02:39:38;103146.75;;;3.72;85.44
5126;BME280;63008;53.112;8.896;2023-02-04T02:41:40;103168.69;;;3.70;85.63
5126;BME280;63008;53.112;8.896;2023-02-04T02:43:41;103174.31;;;3.69;85.61
5126;BME280;63008;53.112;8.896;2023-02-04T02:45:42;103176.69;;;3.65;85.76
5126;BME280;63008;53.112;8.896;2023-02-04T02:47:43;103178.22;;;3.61;85.84
5126;BME280;63008;53.112;8.896;2023-02-04T02:49:46;103181.59;;;3.57;85.97
5126;BME280;63008;53.112;8.896;2023-02-04T02:51:48;103182.19;;;3.59;86.36
5126;BME280;63008;53.112;8.896;2023-02-04T02:53:49;103186.19;;;3.56;86.41
5126;BME280;63008;53.112;8.896;2023-02-04T02:55:50;103189.16;;;3.55;86.18
5126;BME280;63008;53.112;8.896;2023-02-04T02:57:52;103195.31;;;3.44;86.20
5126;BME280;63008;53.112;8.896;2023-02-04T02:59:54;103202.25;;;3.40;86.59
5126;BME280;63008;53.112;8.896;2023-02-04T03:01:59;103199.69;;;3.45;86.71
5126;BME280;63008;53.112;8.896;2023-02-04T03:04:01;103204.72;;;3.42;86.48
5126;BME280;63008;53.112;8.896;2023-02-04T03:06:07;103196.31;;;3.32;86.45
5126;BME280;63008;53.112;8.896;2023-02-04T03:08:11;103198.94;;;3.38;86.67
5126;BME280;63008;53.112;8.896;2023-02-04T03:10:15;103196.31;;;3.32;86.30
5126;BME280;63008;53.112;8.896;2023-02-04T03:12:17;103196.50;;;3.30;86.41
5126;BME280;63008;53.112;8.896;2023-02-04T03:14:20;103192.91;;;3.18;86.62
5126;BME280;63008;53.112;8.896;2023-02-04T03:16:22;103202.59;;;3.08;87.17
5126;BME280;63008;53.112;8.896;2023-02-04T03:18:23;103199.81;;;3.14;86.82
5126;BME280;63008;53.112;8.896;2023-02-04T03:20:25;103203.09;;;2.98;87.23
5126;BME280;63008;53.112;8.896;2023-02-04T03:22:27;103211.88;;;3.00;87.17
5126;BME280;63008;53.112;8.896;2023-02-04T03:24:28;103209.75;;;3.02;87.29
5126;BME280;63008;53.112;8.896;2023-02-04T03:26:29;103216.00;;;3.03;87.72
5126;BME280;63008;53.112;8.896;2023-02-04T03:28:30;103215.69;;;2.93;87.64
5126;BME280;63008;53.112;8.896;2023-02-04T03:30:31;103211.41;;;3.03;87.58
5126;BME280;63008;53.112;8.896;2023-02-04T03:32:32;103214.28;;;3.08;87.29
5126;BME280;63008;53.112;8.896;2023-02-04T03:34:33;103219.72;;;3.08;86.98
5126;BME280;63008;53.112;8.896;2023-02-04T03:36:34;103225.13;;;3.08;87.04
5126;BME280;63008;53.112;8.896;2023-02-04T03:38:36;103222.22;;;3.10;86.62
5126;BME280;63008;53.112;8.896;2023-02-04T03:40:37;103230.78;;;3.07;86.65
5126;BME280;63008;53.112;8.896;2023-02-04T03:42:38;103239.28;;;3.10;86.26
5126;BME280;63008;53.112;8.896;2023-02-04T03:44:39;103243.56;;;3.00;86.28
5126;BME280;63008;53.112;8.896;2023-02-04T03:46:40;103247.88;;;2.83;87.00
5126;BME280;63008;53.112;8.896;2023-02-04T03:48:41;103257.69;;;2.84;87.33
5126;BME280;63008;53.112;8.896;2023-02-04T03:50:42;103253.25;;;2.89;86.86
5126;BME280;63008;53.112;8.896;2023-02-04T03:52:43;103257.41;;;2.92;86.74
5126;BME280;63008;53.112;8.896;2023-02-04T03:54:45;103264.72;;;2.91;86.81
5126;BME280;63008;53.112;8.896;2023-02-04T03:56:46;103266.81;;;2.89;86.59
5126;BME280;63008;53.112;8.896;2023-02-04T03:58:47;103270.44;;;2.83;87.06
5126;BME280;63008;53.112;8.896;2023-02-04T04:00:48;103283.63;;;2.73;87.35
5126;BME280;63008;53.112;8.896;2023-02-04T04:02:49;103275.94;;;2.70;87.43
5126;BME280;63008;53.112;8.896;2023-02-04T04:04:50;103285.59;;;2.60;87.86
5126;BME280;63008;53.112;8.896;2023-02-04T04:06:51;103291.88;;;2.54;88.07
5126;BME280;63008;53.112;8.896;2023-02-04T04:08:52;103280.69;;;2.44;88.18
5126;BME280;63008;53.112;8.896;2023-02-04T04:10:53;103286.59;;;2.34;88.70
5126;BME280;63008;53.112;8.896;2023-02-04T04:12:54;103279.00;;;2.49;88.43
5126;BME280;63008;53.112;8.896;2023-02-04T04:14:55;103283.94;;;2.59;87.99
5126;BME280;63008;53.112;8.896;2023-02-04T04:16:56;103281.03;;;2.54;87.86
5126;BME280;63008;53.112;8.896;2023-02-04T04:18:57;103294.81;;;2.52;88.05
5126;BME280;63008;53.112;8.896;2023-02-04T04:20:58;103292.41;;;2.38;88.28
5126;BME280;63008;53.112;8.896;2023-02-04T04:22:59;103297.63;;;2.33;88.73
5126;BME280;63008;53.112;8.896;2023-02-04T04:25:00;103305.91;;;2.44;88.14
5126;BME280;63008;53.112;8.896;2023-02-04T04:27:01;103314.44;;;2.48;88.11
5126;BME280;63008;53.112;8.896;2023-02-04T04:29:02;103317.06;;;2.23;88.32
5126;BME280;63008;53.112;8.896;2023-02-04T04:31:03;103315.16;;;2.30;88.81
5126;BME280;63008;53.112;8.896;2023-02-04T04:33:04;103326.81;;;2.31;88.51
5126;BME280;63008;53.112;8.896;2023-02-04T04:35:05;103330.38;;;2.31;88.30
5126;BME280;63008;53.112;8.896;2023-02-04T04:37:06;103337.03;;;2.29;88.50
5126;BME280;63008;53.112;8.896;2023-02-04T04:39:07;103342.16;;;1.99;89.22
5126;BME280;63008;53.112;8.896;2023-02-04T04:41:08;103341.59;;;1.78;90.36
5126;BME280;63008;53.112;8.896;2023-02-04T04:43:09;103352.06;;;1.62;91.56
5126;BME280;63008;53.112;8.896;2023-02-04T04:45:10;103346.03;;;1.60;92.36
5126;BME280;63008;53.112;8.896;2023-02-04T04:47:11;103353.47;;;1.77;92.03
5126;BME280;63008;53.112;8.896;2023-02-04T04:49:12;103358.03;;;1.83;91.41
5126;BME280;63008;53.112;8.896;2023-02-04T04:51:13;103365.09;;;1.84;91.16
5126;BME280;63008;53.112;8.896;2023-02-04T04:53:14;103354.44;;;2.02;90.74
5126;BME280;63008;53.112;8.896;2023-02-04T04:55:15;103358.13;;;2.20;89.91
5126;BME280;63008;53.112;8.896;2023-02-04T04:57:16;103373.94;;;2.23;89.14
5126;BME280;63008;53.112;8.896;2023-02-04T04:59:17;103383.53;;;2.19;89.21
5126;BME280;63008;53.112;8.896;2023-02-04T05:01:18;103380.25;;;2.04;89.15
5126;BME280;63008;53.112;8.896;2023-02-04T05:03:20;103381.28;;;2.10;89.57
5126;BME280;63008;53.112;8.896;2023-02-04T05:05:21;103382.34;;;2.02;89.38
5126;BME280;63008;53.112;8.896;2023-02-04T05:07:22;103395.47;;;1.92;89.84
5126;BME280;63008;53.112;8.896;2023-02-04T05:09:23;103396.94;;;2.01;89.63
5126;BME280;63008;53.112;8.896;2023-02-04T05:11:24;103399.22;;;1.91;89.74
5126;BME280;63008;53.112;8.896;2023-02-04T05:13:25;103399.00;;;2.06;89.84
5126;BME280;63008;53.112;8.896;2023-02-04T05:15:26;103389.81;;;2.13;89.19
5126;BME280;63008;53.112;8.896;2023-02-04T05:17:27;103389.81;;;2.13;88.99
5126;BME280;63008;53.112;8.896;2023-02-04T05:19:28;103398.78;;;2.07;89.05
5126;BME280;63008;53.112;8.896;2023-02-04T05:21:29;103407.53;;;2.09;89.17
5126;BME280;63008;53.112;8.896;2023-02-04T05:23:30;103403.56;;;2.12;88.66
5126;BME280;63008;53.112;8.896;2023-02-04T05:25:32;103410.44;;;2.14;88.57
5126;BME280;63008;53.112;8.896;2023-02-04T05:27:33;103418.16;;;2.11;88.70
5126;BME280;63008;53.112;8.896;2023-02-04T05:29:34;103417.81;;;1.81;89.39
5126;BME280;63008;53.112;8.896;2023-02-04T05:31:35;103422.78;;;1.84;90.20
5126;BME280;63008;53.112;8.896;2023-02-04T05:33:36;103411.34;;;1.95;90.12
5126;BME280;63008;53.112;8.896;2023-02-04T05:35:37;103421.13;;;1.96;89.57
5126;BME280;63008;53.112;8.896;2023-02-04T05:37:38;103419.44;;;1.95;89.54
5126;BME280;63008;53.112;8.896;2023-02-04T05:39:39;103425.88;;;2.01;89.49
5126;BME280;63008;53.112;8.896;2023-02-04T05:41:40;103434.22;;;1.99;89.49
5126;BME280;63008;53.112;8.896;2023-02-04T05:43:41;103440.28;;;1.82;90.33
5126;BME280;63008;53.112;8.896;2023-02-04T05:45:42;103430.91;;;1.84;90.20
5126;BME280;63008;53.112;8.896;2023-02-04T05:47:43;103433.00;;;1.82;90.36
5126;BME280;63008;53.112;8.896;2023-02-04T05:49:45;103428.81;;;1.99;90.15
5126;BME280;63008;53.112;8.896;2023-02-04T05:51:46;103430.88;;;2.04;89.83
5126;BME280;63008;53.112;8.896;2023-02-04T05:53:47;103428.78;;;2.12;89.62
5126;BME280;63008;53.112;8.896;2023-02-04T05:55:48;103430.44;;;2.13;89.54
5126;BME280;63008;53.112;8.896;2023-02-04T05:57:49;103429.59;;;2.19;89.39
5126;BME280;63008;53.112;8.896;2023-02-04T05:59:50;103433.53;;;2.17;89.22
5126;BME280;63008;53.112;8.896;2023-02-04T06:01:51;103442.31;;;2.12;89.21
5126;BME280;63008;53.112;8.896;2023-02-04T06:03:51;103454.16;;;2.18;89.46
5126;BME280;63008;53.112;8.896;2023-02-04T06:05:52;103464.56;;;2.27;88.68
5126;BME280;63008;53.112;8.896;2023-02-04T06:07:53;103474.56;;;2.27;88.54
5126;BME280;63008;53.112;8.896;2023-02-04T06:09:54;103468.56;;;2.18;88.89
5126;BME280;63008;53.112;8.896;2023-02-04T06:11:55;103470.84;;;2.08;89.38
5126;BME280;63008;53.112;8.896;2023-02-04T06:13:57;103466.28;;;2.02;89.76
5126;BME280;63008;53.112;8.896;2023-02-04T06:15:58;103479.59;;;2.17;89.22
5126;BME280;63008;53.112;8.896;2023-02-04T06:17:59;103484.56;;;2.20;89.29
5126;BME280;63008;53.112;8.896;2023-02-04T06:20:00;103482.50;;;2.22;89.04
5126;BME280;63008;53.112;8.896;2023-02-04T06:22:01;103492.31;;;2.23;88.95
5126;BME280;63008;53.112;8.896;2023-02-04T06:24:02;103494.41;;;2.14;88.87
5126;BME280;63008;53.112;8.896;2023-02-04T06:26:03;103495.66;;;2.05;89.45
5126;BME280;63008;53.112;8.896;2023-02-04T06:28:04;103503.16;;;1.97;89.67
5126;BME280;63008;53.112;8.896;2023-02-04T06:30:05;103509.19;;;2.05;89.90
5126;BME280;63008;53.112;8.896;2023-02-04T06:32:06;103501.50;;;2.02;89.51
5126;BME280;63008;53.112;8.896;2023-02-04T06:34:07;103497.31;;;1.93;89.70
5126;BME280;63008;53.112;8.896;2023-02-04T06:36:08;103510.25;;;1.85;90.17
5126;BME280;63008;53.112;8.896;2023-02-04T06:38:09;103505.03;;;1.96;90.08
5126;BME280;63008;53.112;8.896;2023-02-04T06:40:11;103501.69;;;2.01;89.68
5126;BME280;63008;53.112;8.896;2023-02-04T06:42:12;103500.44;;;2.03;89.73
5126;BME280;63008;53.112;8.896;2023-02-04T06:44:13;103502.72;;;2.06;89.36
5126;BME280;63008;53.112;8.896;2023-02-04T06:46:14;103502.72;;;2.06;89.19
5126;BME280;63008;53.112;8.896;2023-02-04T06:48:16;103503.78;;;2.05;88.91
5126;BME280;63008;53.112;8.896;2023-02-04T06:50:17;103504.00;;;2.04;89.02
5126;BME280;63008;53.112;8.896;2023-02-04T06:52:20;103511.91;;;2.05;89.11
5126;BME280;63008;53.112;8.896;2023-02-04T06:54:21;103524.00;;;2.03;88.83
5126;BME280;63008;53.112;8.896;2023-02-04T06:56:22;103529.59;;;2.01;88.55
5126;BME280;63008;53.112;8.896;2023-02-04T06:58:23;103539.19;;;2.04;88.67
5126;BME280;63008;53.112;8.896;2023-02-04T07:00:24;103546.06;;;2.00;88.53
5126;BME280;63008;53.112;8.896;2023-02-04T07:02:25;103542.09;;;1.96;88.60
5126;BME280;63008;53.112;8.896;2023-02-04T07:04:26;103548.16;;;1.85;88.79
5126;BME280;63008;53.112;8.896;2023-02-04T07:06:27;103557.50;;;1.76;88.95
5126;BME280;63008;53.112;8.896;2023-02-04T07:08:28;103554.38;;;1.79;89.18
5126;BME280;63008;53.112;8.896;2023-02-04T07:10:29;103562.72;;;1.77;89.48
5126;BME280;63008;53.112;8.896;2023-02-04T07:12:30;103562.91;;;1.76;89.30
5126;BME280;63008;53.112;8.896;2023-02-04T07:14:31;103569.53;;;1.67;89.76
5126;BME280;63008;53.112;8.896;2023-02-04T07:16:32;103569.97;;;1.64;89.87
5126;BME280;63008;53.112;8.896;2023-02-04T07:18:33;103565.19;;;1.66;90.18
5126;BME280;63008;53.112;8.896;2023-02-04T07:20:34;103563.75;;;1.77;89.83
5126;BME280;63008;53.112;8.896;2023-02-04T07:22:35;103567.72;;;1.80;89.74
5126;BME280;63008;53.112;8.896;2023-02-04T07:24:36;103582.72;;;1.77;89.63
5126;BME280;63008;53.112;8.896;2023-02-04T07:26:37;103578.31;;;1.69;90.03
5126;BME280;63008;53.112;8.896;2023-02-04T07:28:38;103586.22;;;1.71;90.46
5126;BME280;63008;53.112;8.896;2023-02-04T07:30:40;103577.06;;;1.72;90.41
5126;BME280;63008;53.112;8.896;2023-02-04T07:32:41;103578.09;;;1.77;90.45
5126;BME280;63008;53.112;8.896;2023-02-04T07:34:42;103575.22;;;1.78;90.09
5126;BME280;63008;53.112;8.896;2023-02-04T07:36:43;103583.97;;;1.87;90.21
5126;BME280;63008;53.112;8.896;2023-02-04T07:38:44;103581.03;;;1.95;89.96
5126;BME280;63008;53.112;8.896;2023-02-04T07:40:45;103583.34;;;2.11;89.69
5126;BME280;63008;53.112;8.896;2023-02-04T07:42:46;103588.34;;;2.14;88.93
5126;BME280;63008;53.112;8.896;2023-02-04T07:44:47;103587.09;;;2.10;88.90
5126;BME280;63008;53.112;8.896;2023-02-04T07:46:48;103599.19;;;2.14;88.82
5126;BME280;63008;53.112;8.896;2023-02-04T07:48:49;103606.50;;;2.13;88.84
5126;BME280;63008;53.112;8.896;2023-02-04T07:50:50;103606.25;;;2.02;88.96
5126;BME280;63008;53.112;8.896;2023-02-04T07:52:51;103602.72;;;1.95;89.26
5126;BME280;63008;53.112;8.896;2023-02-04T07:54:52;103605.81;;;1.85;89.34
5126;BME280;63008;53.112;8.896;2023-02-04T07:56:53;103611.66;;;1.89;90.13
5126;BME280;63008;53.112;8.896;2023-02-04T07:58:54;103599.81;;;2.03;89.89
5126;BME280;63008;53.112;8.896;2023-02-04T08:00:55;103602.91;;;2.06;89.54
5126;BME280;63008;53.112;8.896;2023-02-04T08:02:56;103609.19;;;2.13;89.34
5126;BME280;63008;53.112;8.896;2023-02-04T08:04:57;103606.88;;;2.17;88.94
5126;BME280;63008;53.112;8.896;2023-02-04T08:06:58;103604.19;;;2.23;88.92
5126;BME280;63008;53.112;8.896;2023-02-04T08:08:58;103612.31;;;2.23;88.84
5126;BME280;63008;53.112;8.896;2023-02-04T08:10:59;103616.91;;;2.16;89.39
5126;BME280;63008;53.112;8.896;2023-02-04T08:13:00;103617.72;;;2.23;88.84
5126;BME280;63008;53.112;8.896;2023-02-04T08:15:02;103616.28;;;2.21;89.03
5126;BME280;63008;53.112;8.896;2023-02-04T08:17:04;103633.56;;;2.26;89.26
5126;BME280;63008;53.112;8.896;2023-02-04T08:19:05;103630.66;;;2.34;88.93
5126;BME280;63008;53.112;8.896;2023-02-04T08:21:06;103631.09;;;2.38;89.04
5126;BME280;63008;53.112;8.896;2023-02-04T08:23:07;103636.06;;;2.47;88.77
5126;BME280;63008;53.112;8.896;2023-02-04T08:25:09;103639.22;;;2.38;88.89
5126;BME280;63008;53.112;8.896;2023-02-04T08:27:11;103638.56;;;2.36;89.03
5126;BME280;63008;53.112;8.896;2023-02-04T08:29:12;103642.13;;;2.43;89.25
5126;BME280;63008;53.112;8.896;2023-02-04T08:31:13;103651.69;;;2.45;88.90
5126;BME280;63008;53.112;8.896;2023-02-04T08:33:14;103654.63;;;2.50;88.73
5126;BME280;63008;53.112;8.896;2023-02-04T08:35:15;103652.72;;;2.51;89.25
5126;BME280;63008;53.112;8.896;2023-02-04T08:37:16;103656.91;;;2.53;89.23
5126;BME280;63008;53.112;8.896;2023-02-04T08:39:17;103658.56;;;2.67;89.19
5126;BME280;63008;53.112;8.896;2023-02-04T08:41:18;103665.63;;;2.81;87.91
5126;BME280;63008;53.112;8.896;2023-02-04T08:43:19;103662.91;;;2.81;88.07
5126;BME280;63008;53.112;8.896;2023-02-04T08:45:20;103672.94;;;2.74;87.63
5126;BME280;63008;53.112;8.896;2023-02-04T08:47:21;103676.06;;;2.78;87.29
5126;BME280;63008;53.112;8.896;2023-02-04T08:49:22;103685.88;;;2.66;87.82
5126;BME280;63008;53.112;8.896;2023-02-04T08:51:23;103687.75;;;2.78;88.20
5126;BME280;63008;53.112;8.896;2023-02-04T08:53:24;103688.78;;;2.97;87.50
5126;BME280;63008;53.112;8.896;2023-02-04T08:55:25;103684.13;;;3.17;86.66
5126;BME280;63008;53.112;8.896;2023-02-04T08:57:26;103685.59;;;3.19;86.09
5126;BME280;63008;53.112;8.896;2023-02-04T08:59:27;103687.91;;;3.16;85.88
5126;BME280;63008;53.112;8.896;2023-02-04T09:01:28;103700.84;;;3.20;86.18
5126;BME280;63008;53.112;8.896;2023-02-04T09:03:29;103702.88;;;3.25;85.95
5126;BME280;63008;53.112;8.896;2023-02-04T09:05:30;103701.00;;;3.38;85.74
5126;BME280;63008;53.112;8.896;2023-02-04T09:07:31;103702.69;;;3.20;84.92
5126;BME280;63008;53.112;8.896;2023-02-04T09:09:32;103705.59;;;3.25;85.17
5126;BME280;63008;53.112;8.896;2023-02-04T09:11:33;103711.00;;;3.38;85.42
5126;BME280;63008;53.112;8.896;2023-02-04T09:13:34;103705.09;;;3.60;84.35
5126;BME280;63008;53.112;8.896;2023-02-04T09:15:35;103706.34;;;3.57;83.99
5126;BME280;63008;53.112;8.896;2023-02-04T09:17:36;103711.78;;;3.51;83.75
5126;BME280;63008;53.112;8.896;2023-02-04T09:19:38;103714.28;;;3.53;83.63
5126;BME280;63008;53.112;8.896;2023-02-04T09:21:39;103726.38;;;3.56;84.04
5126;BME280;63008;53.112;8.896;2023-02-04T09:23:40;103728.16;;;3.82;83.42
5126;BME280;63008;53.112;8.896;2023-02-04T09:25:43;103725.75;;;4.05;82.62
5126;BME280;63008;53.112;8.896;2023-02-04T09:27:44;103730.44;;;4.29;81.26
5126;BME280;63008;53.112;8.896;2023-02-04T09:29:45;103725.59;;;4.31;80.99
5126;BME280;63008;53.112;8.896;2023-02-04T09:31:46;103735.94;;;4.47;80.55
5126;BME280;63008;53.112;8.896;2023-02-04T09:33:48;103738.22;;;4.50;80.13
5126;BME280;63008;53.112;8.896;2023-02-04T09:35:49;103738.34;;;4.30;80.26
5126;BME280;63008;53.112;8.896;2023-02-04T09:37:50;103738.47;;;4.11;80.79
5126;BME280;63008;53.112;8.896;2023-02-04T09:39:51;103741.38;;;4.16;81.69
5126;BME280;63008;53.112;8.896;2023-02-04T09:41:52;103739.66;;;4.21;80.83
5126;BME280;63008;53.112;8.896;2023-02-04T09:43:53;103744.16;;;4.03;80.89
5126;BME280;63008;53.112;8.896;2023-02-04T09:45:55;103741.69;;;3.95;82.01
5126;BME280;63008;53.112;8.896;2023-02-04T09:47:57;103744.75;;;4.05;81.62
5126;BME280;63008;53.112;8.896;2023-02-04T09:49:59;103737.50;;;3.99;81.60
5126;BME280;63008;53.112;8.896;2023-02-04T09:51:59;103747.09;;;4.01;81.39
5126;BME280;63008;53.112;8.896;2023-02-04T09:54:21;103747.34;;;3.87;81.98
5126;BME280;63008;53.112;8.896;2023-02-04T09:56:22;103751.47;;;4.02;82.17
5126;BME280;63008;53.112;8.896;2023-02-04T09:58:28;103746.38;;;4.19;81.55
5126;BME280;63008;53.112;8.896;2023-02-04T10:00:31;103744.72;;;4.11;81.21
5126;BME280;63008;53.112;8.896;2023-02-04T10:02:33;103742.91;;;3.99;81.82
5126;BME280;63008;53.112;8.896;2023-02-04T10:04:35;103743.63;;;3.88;81.74
5126;BME280;63008;53.112;8.896;2023-02-04T10:06:36;103753.22;;;3.84;82.51
5126;BME280;63008;53.112;8.896;2023-02-04T10:08:38;103757.22;;;3.81;82.27
5126;BME280;63008;53.112;8.896;2023-02-04T10:10:39;103766.75;;;3.97;81.84
5126;BME280;63008;53.112;8.896;2023-02-04T10:12:41;103763.34;;;4.14;81.16
5126;BME280;63008;53.112;8.896;2023-02-04T10:14:43;103763.94;;;4.23;80.77
5126;BME280;63008;53.112;8.896;2023-02-04T10:16:51;103766.94;;;4.02;80.41
5126;BME280;63008;53.112;8.896;2023-02-04T10:18:53;103772.78;;;4.05;81.03
5126;BME280;63008;53.112;8.896;2023-02-04T10:20:59;103774.28;;;4.01;80.84
5126;BME280;63008;53.112;8.896;2023-02-04T10:23:09;103771.53;;;4.08;81.09
5126;BME280;63008;53.112;8.896;2023-02-04T10:25:12;103777.88;;;4.33;80.80
5126;BME280;63008;53.112;8.896;2023-02-04T10:27:13;103772.53;;;4.51;79.76
5126;BME280;63008;53.112;8.896;2023-02-04T10:29:19;103772.59;;;4.69;79.24
5126;BME280;63008;53.112;8.896;2023-02-04T10:31:38;103770.28;;;4.72;80.25
5126;BME280;63008;53.112;8.896;2023-02-04T10:33:39;103771.38;;;4.65;78.34
5126;BME280;63008;53.112;8.896;2023-02-04T10:35:44;103768.63;;;4.71;78.24
5126;BME280;63008;53.112;8.896;2023-02-04T10:39:52;103774.50;;;4.93;77.90
5126;BME280;63008;53.112;8.896;2023-02-04T10:41:58;103770.03;;;5.23;76.35
5126;BME280;63008;53.112;8.896;2023-02-04T10:44:06;103776.09;;;5.25;76.40
5126;BME280;63008;53.112;8.896;2023-02-04T10:46:10;103780.66;;;5.31;75.73
5126;BME280;63008;53.112;8.896;2023-02-04T10:48:16;103788.25;;;5.46;76.65
5126;BME280;63008;53.112;8.896;2023-02-04T10:50:19;103793.53;;;5.59;73.95
5126;BME280;63008;53.112;8.896;2023-02-04T10:52:29;103792.22;;;5.68;74.59
5126;BME280;63008;53.112;8.896;2023-02-04T10:54:36;103804.19;;;5.85;73.46